Airfield :
LOGIN :

Register | Disclaimer

   EN    FR    IT 

 










Legend :    VFR   Marginal VFR   IFR   Intensive IFR   Very Intensive IFR
Visi :
Ceiling :
>= 8 km
>= 3000ft
5 to 8 km
1000 to 3000 ft
1500m to 5 km
500 to 1000 ft
800 to 1500m
200 to 500 ft
< 800m
< 200 ft
Symbols :   Thunderstorms  Fog  Heavy snow  Heavy precipitations  Wind > 20 kt
SIGMETs :     Misc.  Thunderstorms  Icing  Turbulence  Mountain Waves  Volcanic Ashes






- Airport Elevation : 3360 ft
- IATA code : QSF


DAAS - 8 Mai 45

CURRENT METAR :
  • 192200Z VRB02KT 9999 FEW026 03/01 Q1018

EXPIRED METARs :
  • 192100Z 04003KT 360V070 9999 FEW026 02/01 Q1017
  • 192000Z VRB02KT 9999 FEW026 04/02 Q1017

TAF TAF DAAS
Valid from the 19 at 18:00 until the 20 at 18:00 UTC


191700Z 1918/2018 28010KT 9999 FEW010 BKN026
PROB40 1918/1922 FEW026TCU FEW030CB
PROB30
TEMPO 1918/1921 5000 -TSRA FEW026CB
PROB40
TEMPO 2003/2008 3000 BR BKN010
BECMG 2008/2010 20012KT
PROB30
TEMPO 2010/2012 22015G25KT FEW026TCU



MET'MAP, your aeronautical weather chart ! - Copyright ORBIFLY December 2007 - Disclaimer

ORBIFLY MET'MAP TEAM :

Programming & Development : Alexandra Zaïnal
Concept & Development : Baudouin d'Aumeries
Co-Development & Prog : Marc-Olivier Méhu
Technical & hardware support : Manuel Goepfert

Contact : metmap@orbifly.com




SOURCES & CREDITS :

   NOAA